EDDF

Frankfurt am Main International Airport

Frankfurt-am-Main, Germany
METAR EDDF 190850Z 19006KT CAVOK 23/14 Q1020 NOSIG
Observed Flight Rules
Sep-19 @ 08:50 UTC (18 minutes ago) Visual Flight Rules
Wind Visibility Clouds
190° at 6 knots 10,000+ meters
  • Clear skies
Temperatures Readings
Current 23°C / 73°F
Dewpoint 14°C / 57°F
Humidity 57%
Altimeter 30.12" Hg
Pressure 1020 hPa
Elevation 113
METAR EDDF 190850Z 19006KT CAVOK 23/14 Q1020 NOSIG
Observed Flight Rules
Sep-19 @ 08:50 UTC
(18 minutes ago)
VFR
Wind Visibility
190° at 6 knots 10,000+ meters
Clouds
  • Clear skies
Temperature Dewpoint
23°C / 73°F 14°C / 57°F
Humidity Altimeter Pressure
57% 30.12" Hg 1020 hPa